Terminal Aerodrome Forecast
Issued by NWS

Home | Current Version | Previous Version | Text Only | Print | Product List | Glossary On
Versions: 1 2 3 4 5 6 7 8 9 10 11 12 13 14 15 16 17 18 19 20 21 22
000
FTUS41 KBGM 221100
TAFRME
TAF
KRME 221139Z 2212/2312 12006KT P6SM BKN120
     FM221900 13006KT P6SM OVC040 WS020/23043KT
      TEMPO 2219/2223 -SHRA OVC025
     FM222300 13005KT 5SM -SHRA OVC025 WS020/25048KT
     FM230900 20005KT P6SM OVC030=

USA.gov is the U.S. government's official web portal to all federal, state and local government web resources and services.